createdAt,value
2022-08-07T00:02:39.659Z,76.56
2022-08-07T00:04:54.828Z,76.44
2022-08-07T00:07:21.724Z,76.42
2022-08-07T00:09:59.274Z,76.20
2022-08-07T00:12:35.402Z,76.26
2022-08-07T00:15:22.258Z,76.30
2022-08-07T00:17:58.997Z,76.00
2022-08-07T00:20:29.991Z,75.42
2022-08-07T00:23:02.936Z,75.33
2022-08-07T00:25:41.231Z,74.64
2022-08-07T00:28:08.839Z,74.61
2022-08-07T00:30:37.772Z,74.46
2022-08-07T00:33:05.110Z,73.99
2022-08-07T00:35:36.610Z,73.84
2022-08-07T00:38:04.419Z,73.18
2022-08-07T00:40:39.724Z,73.37
2022-08-07T00:43:10.786Z,73.04
2022-08-07T00:45:57.006Z,73.20
2022-08-07T00:48:24.900Z,72.99
2022-08-07T00:50:58.313Z,73.39
2022-08-07T00:53:27.072Z,73.42
2022-08-07T00:56:13.898Z,73.40
2022-08-07T00:58:46.900Z,73.48
2022-08-07T01:01:15.730Z,74.06
2022-08-07T01:03:55.981Z,73.98
2022-08-07T01:06:26.086Z,73.80
2022-08-07T01:08:55.492Z,74.31
2022-08-07T01:12:23.515Z,73.73
2022-08-07T01:14:10.436Z,73.90
2022-08-07T01:16:37.814Z,73.85
2022-08-07T01:19:18.222Z,73.93
2022-08-07T01:21:49.556Z,74.36
2022-08-07T01:24:22.269Z,74.58
2022-08-07T01:26:52.007Z,74.53
2022-08-07T01:29:21.958Z,74.84
2022-08-07T01:31:50.101Z,75.04
2022-08-07T01:34:20.210Z,74.61
2022-08-07T01:36:57.997Z,74.72
2022-08-07T01:39:40.687Z,74.56
2022-08-07T01:42:39.361Z,74.95
2022-08-07T01:45:04.000Z,75.12
2022-08-07T01:48:20.113Z,74.87
2022-08-07T01:50:28.637Z,74.70
2022-08-07T01:52:58.640Z,74.88
2022-08-07T01:55:40.073Z,74.69
2022-08-07T01:58:27.755Z,74.54
2022-08-07T02:01:09.810Z,74.86
2022-08-07T02:04:11.655Z,74.81
2022-08-07T02:06:41.284Z,75.01
2022-08-07T02:09:51.617Z,75.13
2022-08-07T02:12:17.750Z,75.51
2022-08-07T02:14:49.000Z,75.54
2022-08-07T02:17:27.380Z,75.85
2022-08-07T02:20:05.551Z,76.12
2022-08-07T02:22:41.218Z,76.28
2022-08-07T02:25:17.247Z,76.37
2022-08-07T02:27:52.243Z,76.61
2022-08-07T02:30:20.260Z,76.47
2022-08-07T02:33:08.855Z,76.04
2022-08-07T02:36:30.032Z,76.18
2022-08-07T02:38:31.961Z,76.11
2022-08-07T02:41:01.218Z,76.20
2022-08-07T02:43:31.469Z,76.39
2022-08-07T02:46:02.172Z,76.44
2022-08-07T02:48:30.824Z,76.28
2022-08-07T02:51:04.267Z,76.13
2022-08-07T02:53:39.093Z,77.28
2022-08-07T02:56:20.967Z,76.71
2022-08-07T02:58:54.028Z,76.64
2022-08-07T03:01:35.799Z,76.21
2022-08-07T03:04:12.779Z,76.21
2022-08-07T03:06:45.808Z,75.94
2022-08-07T03:09:14.003Z,75.85
2022-08-07T03:11:52.440Z,76.43
2022-08-07T03:14:26.228Z,76.73
2022-08-07T03:16:56.636Z,77.05
2022-08-07T03:19:24.817Z,76.32
2022-08-07T03:21:56.808Z,77.02
2022-08-07T03:24:27.777Z,77.17
2022-08-07T03:27:00.772Z,77.75
2022-08-07T03:29:36.862Z,78.51
2022-08-07T03:32:13.391Z,78.00
2022-08-07T03:35:00.889Z,78.07
2022-08-07T03:37:46.455Z,77.47
2022-08-07T03:40:22.307Z,77.30
2022-08-07T03:42:52.180Z,77.33
2022-08-07T03:45:31.059Z,77.15
2022-08-07T03:47:59.291Z,76.74
2022-08-07T03:50:28.748Z,76.92
2022-08-07T03:52:59.850Z,76.92
2022-08-07T03:55:58.142Z,76.55
2022-08-07T03:59:04.641Z,76.22
2022-08-07T04:01:11.545Z,77.04
2022-08-07T04:03:53.169Z,77.09
2022-08-07T04:06:36.167Z,77.24
2022-08-07T04:09:08.484Z,77.60
2022-08-07T04:12:27.870Z,76.74
2022-08-07T04:14:38.925Z,76.69
2022-08-07T04:17:19.855Z,76.12
2022-08-07T04:19:52.481Z,75.10
2022-08-07T04:22:28.627Z,74.57
2022-08-07T04:24:58.053Z,74.22
2022-08-07T04:27:26.612Z,73.81
2022-08-07T04:29:58.361Z,73.24
2022-08-07T04:32:34.057Z,72.70
2022-08-07T04:35:05.973Z,72.06
2022-08-07T04:38:00.998Z,71.08
2022-08-07T04:40:22.655Z,71.12
2022-08-07T04:43:01.641Z,70.66
2022-08-07T04:46:04.542Z,70.59
2022-08-07T04:49:14.977Z,69.76
2022-08-07T04:51:49.581Z,69.60
2022-08-07T04:54:30.810Z,69.31
2022-08-07T04:58:11.765Z,68.53
2022-08-07T05:01:14.659Z,68.54
2022-08-07T05:04:18.145Z,68.11
2022-08-07T05:07:09.657Z,67.30
2022-08-07T05:09:58.132Z,67.85
2022-08-07T05:13:01.410Z,66.11
2022-08-07T05:15:42.590Z,65.62
2022-08-07T05:18:29.993Z,65.46
2022-08-07T05:21:04.580Z,64.48
2022-08-07T05:23:40.161Z,63.60
2022-08-07T05:26:24.683Z,63.47
2022-08-07T05:28:56.475Z,62.75
2022-08-07T05:31:34.531Z,62.06
2022-08-07T05:34:05.484Z,61.69
2022-08-07T05:36:44.836Z,61.99
2022-08-07T05:40:13.722Z,60.89
2022-08-07T05:42:12.429Z,60.85
2022-08-07T05:44:46.464Z,60.66
2022-08-07T05:47:20.927Z,59.54
2022-08-07T05:50:06.517Z,60.01
2022-08-07T05:52:33.407Z,60.53
2022-08-07T05:55:07.051Z,59.72
2022-08-07T05:57:42.319Z,59.12
2022-08-07T06:00:16.283Z,58.58
2022-08-07T06:02:48.799Z,58.64
2022-08-07T06:05:18.264Z,58.76
2022-08-07T06:08:13.406Z,58.89
2022-08-07T06:10:39.929Z,58.17
2022-08-07T06:13:13.441Z,57.28
2022-08-07T06:15:43.345Z,58.06
2022-08-07T06:18:13.911Z,56.85
2022-08-07T06:20:50.903Z,56.70
2022-08-07T06:24:37.638Z,56.45
2022-08-07T06:26:19.417Z,55.84
2022-08-07T06:28:56.910Z,58.16
2022-08-07T06:31:38.473Z,57.42
2022-08-07T06:34:13.356Z,56.94
2022-08-07T06:36:40.229Z,56.39
2022-08-07T06:40:16.505Z,56.60
2022-08-07T06:42:10.435Z,57.15
2022-08-07T06:44:40.150Z,55.39
2022-08-07T06:47:12.285Z,55.53
2022-08-07T06:49:51.644Z,54.98
2022-08-07T06:52:31.705Z,53.76
2022-08-07T06:55:33.578Z,53.86
2022-08-07T06:58:02.676Z,53.44
2022-08-07T07:00:36.817Z,51.47
2022-08-07T07:03:10.828Z,51.73
2022-08-07T07:06:03.343Z,51.43
2022-08-07T07:08:31.140Z,50.84
2022-08-07T07:11:13.037Z,51.21
2022-08-07T07:13:57.447Z,49.93
2022-08-07T07:16:45.109Z,51.21
2022-08-07T07:19:55.149Z,48.98
2022-08-07T07:22:35.616Z,48.13
2022-08-07T07:25:02.974Z,49.37
2022-08-07T07:28:01.940Z,48.48
2022-08-07T07:30:40.023Z,48.06
2022-08-07T07:33:14.286Z,48.70
2022-08-07T07:36:03.811Z,47.83
2022-08-07T07:38:34.710Z,48.40
2022-08-07T07:41:08.846Z,47.35
2022-08-07T07:44:14.766Z,47.58
2022-08-07T07:46:37.730Z,47.97
2022-08-07T07:50:32.770Z,47.28
2022-08-07T07:52:12.741Z,47.52
2022-08-07T07:54:50.691Z,48.00
2022-08-07T07:57:29.043Z,47.91
2022-08-07T08:00:12.119Z,46.78
2022-08-07T08:03:05.216Z,45.52
2022-08-07T08:05:50.455Z,45.04
2022-08-07T08:08:34.603Z,45.17
2022-08-07T08:11:13.526Z,44.62
2022-08-07T08:13:53.909Z,43.21
2022-08-07T08:16:38.107Z,43.39
2022-08-07T08:20:16.302Z,44.18
2022-08-07T08:22:32.804Z,43.85
2022-08-07T08:25:27.028Z,42.50
2022-08-07T08:28:16.706Z,44.18
2022-08-07T08:30:56.967Z,43.37
2022-08-07T08:33:33.144Z,44.92
2022-08-07T08:36:01.736Z,44.97
2022-08-07T08:38:41.407Z,44.95
2022-08-07T08:41:58.750Z,44.05
2022-08-07T08:44:58.928Z,44.57
2022-08-07T08:47:30.859Z,45.14
2022-08-07T08:50:39.790Z,44.77
2022-08-07T08:53:31.555Z,43.40
2022-08-07T08:56:03.567Z,42.56
2022-08-07T08:58:54.564Z,42.49
2022-08-07T09:01:40.105Z,42.20
2022-08-07T09:04:26.086Z,41.41
2022-08-07T09:07:13.612Z,42.79
2022-08-07T09:10:16.489Z,43.21
2022-08-07T09:13:09.315Z,42.77
2022-08-07T09:16:24.812Z,42.34
2022-08-07T09:19:50.931Z,41.22
2022-08-07T09:24:29.385Z,39.83
2022-08-07T09:25:29.465Z,39.99
2022-08-07T09:28:06.073Z,39.09
2022-08-07T09:31:05.388Z,40.19
2022-08-07T09:34:02.213Z,40.71
2022-08-07T09:36:46.837Z,41.14
2022-08-07T09:39:55.024Z,41.69
2022-08-07T09:42:52.890Z,42.12
2022-08-07T09:47:56.135Z,40.45
2022-08-07T09:50:02.769Z,40.02
2022-08-07T09:52:52.490Z,38.25
2022-08-07T09:56:03.135Z,38.74
2022-08-07T09:58:58.405Z,38.59
2022-08-07T10:01:52.325Z,37.49
2022-08-07T10:04:57.193Z,38.77
2022-08-07T10:08:04.512Z,37.53
2022-08-07T10:11:17.297Z,37.23
2022-08-07T10:14:12.822Z,36.81
2022-08-07T10:17:14.427Z,37.37
2022-08-07T10:20:12.963Z,36.92
2022-08-07T10:24:05.650Z,38.28
2022-08-07T10:26:51.671Z,39.29
2022-08-07T10:29:51.558Z,37.56
2022-08-07T10:33:05.247Z,36.75
2022-08-07T10:36:10.941Z,36.24
2022-08-07T10:39:14.178Z,35.90
2022-08-07T10:42:21.190Z,36.09
2022-08-07T10:45:45.365Z,37.61
2022-08-07T10:49:10.198Z,37.87
2022-08-07T10:52:13.128Z,36.62
2022-08-07T10:54:53.180Z,37.20
2022-08-07T10:58:05.963Z,36.44
2022-08-07T11:00:50.538Z,35.61
2022-08-07T11:03:52.820Z,35.94
2022-08-07T11:06:58.031Z,36.77
2022-08-07T11:10:07.162Z,35.53
2022-08-07T11:12:40.460Z,36.59
2022-08-07T11:15:26.292Z,35.33
2022-08-07T11:18:43.972Z,34.56
2022-08-07T11:21:20.780Z,33.53
2022-08-07T11:24:14.053Z,33.73
2022-08-07T11:27:00.442Z,34.38
2022-08-07T11:29:47.396Z,34.78
2022-08-07T11:32:25.402Z,32.93
2022-08-07T11:34:59.193Z,33.18
2022-08-07T11:37:57.880Z,32.44
2022-08-07T11:41:01.999Z,33.45
2022-08-07T11:44:10.727Z,34.07
2022-08-07T11:47:07.557Z,32.78
2022-08-07T11:50:44.635Z,33.89
2022-08-07T11:54:01.121Z,33.42
2022-08-07T11:57:00.476Z,33.35
2022-08-07T12:00:19.049Z,34.07
2022-08-07T12:03:44.364Z,35.43
2022-08-07T12:06:50.744Z,34.44
2022-08-07T12:09:35.806Z,33.66
2022-08-07T12:12:20.147Z,34.50
2022-08-07T12:15:00.582Z,32.77
2022-08-07T12:17:59.506Z,32.62
2022-08-07T12:20:49.265Z,32.94
2022-08-07T12:24:07.364Z,32.87
2022-08-07T12:26:49.508Z,34.30
2022-08-07T12:29:38.420Z,35.43
2022-08-07T12:32:21.198Z,34.39
2022-08-07T12:34:55.604Z,33.30
2022-08-07T12:37:28.382Z,34.56
2022-08-07T12:40:43.955Z,33.10
2022-08-07T12:43:10.298Z,32.09
2022-08-07T12:45:56.930Z,32.46
2022-08-07T12:48:53.113Z,32.87
2022-08-07T12:51:46.651Z,30.18
2022-08-07T12:54:54.545Z,30.79
2022-08-07T12:57:29.987Z,32.43
2022-08-07T13:00:12.817Z,30.25
2022-08-07T13:04:02.483Z,30.89
2022-08-07T13:07:02.291Z,30.42
2022-08-07T13:10:21.488Z,30.28
2022-08-07T13:13:47.278Z,30.82
2022-08-07T13:16:32.692Z,30.93
2022-08-07T13:19:50.629Z,31.13
2022-08-07T13:22:32.316Z,30.87
2022-08-07T13:25:23.911Z,31.55
2022-08-07T13:28:13.764Z,33.08
2022-08-07T13:31:46.124Z,32.35
2022-08-07T13:34:48.467Z,33.42
2022-08-07T13:37:33.647Z,31.35
2022-08-07T13:40:35.389Z,31.97
2022-08-07T13:43:13.645Z,31.49
2022-08-07T13:46:11.415Z,32.84
2022-08-07T13:48:38.688Z,31.22
2022-08-07T13:51:27.967Z,32.53
2022-08-07T13:54:02.085Z,31.58
2022-08-07T13:56:35.341Z,32.10
2022-08-07T13:59:31.354Z,32.29
2022-08-07T14:02:21.529Z,30.62
2022-08-07T14:05:08.696Z,32.03
2022-08-07T14:08:00.865Z,32.46
2022-08-07T14:10:41.790Z,33.39
2022-08-07T14:13:16.658Z,32.30
2022-08-07T14:16:05.986Z,32.00
2022-08-07T14:18:50.022Z,32.16
2022-08-07T14:22:03.446Z,30.64
2022-08-07T14:24:41.298Z,30.63
2022-08-07T14:27:16.220Z,30.80
2022-08-07T14:30:12.344Z,31.26
2022-08-07T14:32:57.389Z,31.78
2022-08-07T14:35:45.827Z,30.82
2022-08-07T14:38:26.411Z,30.86
2022-08-07T14:41:04.266Z,30.99
2022-08-07T14:43:55.732Z,30.85
2022-08-07T14:46:30.690Z,32.67
2022-08-07T14:49:17.498Z,33.84
2022-08-07T14:52:03.708Z,33.66
2022-08-07T14:54:35.893Z,34.33
2022-08-07T14:57:18.869Z,34.04
2022-08-07T15:00:05.568Z,32.75
2022-08-07T15:02:37.039Z,32.84
2022-08-07T15:05:19.606Z,31.87
2022-08-07T15:07:51.885Z,31.74
2022-08-07T15:10:26.068Z,31.59
2022-08-07T15:12:58.645Z,31.23
2022-08-07T15:15:56.840Z,31.60
2022-08-07T15:18:36.540Z,31.73
2022-08-07T15:21:58.642Z,32.44
2022-08-07T15:27:05.743Z,33.99
2022-08-07T15:32:40.094Z,34.32
2022-08-07T15:35:19.018Z,34.57
2022-08-07T15:38:30.410Z,35.41
2022-08-07T15:41:00.264Z,35.74
2022-08-07T15:43:55.988Z,36.34
2022-08-07T15:46:31.699Z,36.50
2022-08-07T15:54:41.352Z,37.85
2022-08-07T15:57:28.138Z,38.52
2022-08-07T16:00:06.353Z,39.07
2022-08-07T16:02:46.675Z,38.34
2022-08-07T16:05:20.041Z,38.97
2022-08-07T16:08:32.551Z,39.44
2022-08-07T16:10:48.886Z,39.36
2022-08-07T16:13:57.606Z,40.00
2022-08-07T16:16:48.205Z,39.53
2022-08-07T16:19:42.653Z,39.60
2022-08-07T16:22:55.532Z,40.14
2022-08-07T16:25:55.803Z,39.97
2022-08-07T16:30:05.843Z,40.44
2022-08-07T16:31:51.708Z,40.84
2022-08-07T16:34:41.879Z,40.77
2022-08-07T16:38:05.293Z,40.54
2022-08-07T16:41:02.191Z,40.05
2022-08-07T16:44:05.913Z,40.00
2022-08-07T16:47:16.678Z,40.01
2022-08-07T16:50:38.777Z,40.48
2022-08-07T16:54:01.159Z,40.26
2022-08-07T16:56:33.206Z,40.17
2022-08-07T16:59:45.839Z,40.22
2022-08-07T17:03:04.992Z,40.01
2022-08-07T17:06:26.715Z,40.60
2022-08-07T17:09:10.573Z,40.40
2022-08-07T17:12:04.349Z,41.25
2022-08-07T17:15:04.311Z,41.24
2022-08-07T17:18:18.252Z,41.19
2022-08-07T17:20:46.676Z,41.47
2022-08-07T17:23:22.799Z,41.90
2022-08-07T17:26:23.583Z,42.13
2022-08-07T17:30:12.583Z,42.11
2022-08-07T17:32:31.080Z,42.75
2022-08-07T17:35:50.146Z,42.85
2022-08-07T17:38:57.105Z,43.85
2022-08-07T17:42:02.332Z,44.74
2022-08-07T17:44:34.141Z,44.11
2022-08-07T17:47:37.726Z,44.92
2022-08-07T17:50:22.501Z,46.37
2022-08-07T17:53:06.147Z,46.47
2022-08-07T17:55:55.795Z,47.27
2022-08-07T17:58:56.834Z,47.53
2022-08-07T18:01:56.718Z,47.38
2022-08-07T18:04:35.288Z,48.28
2022-08-07T18:07:22.625Z,48.89
2022-08-07T18:10:06.371Z,49.72
2022-08-07T18:13:01.156Z,49.92
2022-08-07T18:15:41.322Z,49.93
2022-08-07T18:18:47.013Z,50.66
2022-08-07T18:21:58.512Z,52.02
2022-08-07T18:24:36.015Z,51.80
2022-08-07T18:27:25.072Z,52.42
2022-08-07T18:30:33.079Z,52.54
2022-08-07T18:33:55.638Z,53.03
2022-08-07T18:36:40.110Z,54.50
2022-08-07T18:40:08.406Z,55.81
2022-08-07T18:42:21.797Z,56.46
2022-08-07T18:45:44.276Z,56.71
2022-08-07T18:50:30.073Z,57.22
2022-08-07T18:52:35.451Z,58.27
2022-08-07T18:54:51.533Z,58.73
2022-08-07T18:57:40.444Z,58.40
2022-08-07T19:00:34.443Z,58.45
2022-08-07T19:03:38.737Z,58.65
2022-08-07T19:06:16.760Z,58.59
2022-08-07T19:08:55.746Z,58.82
2022-08-07T19:12:03.965Z,58.67
2022-08-07T19:16:02.972Z,58.94
2022-08-07T19:18:12.840Z,59.54
2022-08-07T19:21:08.366Z,59.74
2022-08-07T19:23:58.327Z,60.44
2022-08-07T19:27:01.947Z,60.18
2022-08-07T19:31:02.071Z,60.43
2022-08-07T19:32:28.772Z,60.11
2022-08-07T19:35:09.861Z,60.17
2022-08-07T19:37:55.427Z,60.37
2022-08-07T19:40:31.874Z,61.23
2022-08-07T19:43:09.221Z,61.67
2022-08-07T19:46:01.161Z,61.55
2022-08-07T19:48:44.495Z,61.01
2022-08-07T19:51:51.755Z,61.45
2022-08-07T19:54:33.818Z,61.96
2022-08-07T19:58:03.045Z,61.53
2022-08-07T19:59:57.258Z,61.63
2022-08-07T20:02:35.793Z,61.56
2022-08-07T20:05:10.066Z,61.16
2022-08-07T20:07:48.214Z,61.81
2022-08-07T20:10:35.307Z,61.88
2022-08-07T20:13:23.685Z,62.12
2022-08-07T20:15:57.705Z,61.80
2022-08-07T20:18:32.205Z,61.53
2022-08-07T20:21:14.830Z,61.09
2022-08-07T20:24:00.139Z,61.08
2022-08-07T20:26:45.049Z,61.27
2022-08-07T20:29:49.323Z,61.35
2022-08-07T20:32:11.230Z,60.79
2022-08-07T20:34:52.900Z,61.17
2022-08-07T20:37:57.681Z,61.07
2022-08-07T20:40:31.459Z,61.37
2022-08-07T20:43:03.004Z,60.99
2022-08-07T20:46:26.657Z,60.74
2022-08-07T20:48:28.550Z,60.96
2022-08-07T20:51:03.399Z,61.01
2022-08-07T20:54:04.543Z,61.53
2022-08-07T20:56:29.388Z,61.63
2022-08-07T20:59:01.918Z,61.55
2022-08-07T21:01:45.281Z,62.50
2022-08-07T21:04:22.706Z,62.88
2022-08-07T21:06:55.382Z,63.31
2022-08-07T21:09:35.596Z,63.43
2022-08-07T21:12:29.231Z,63.62
2022-08-07T21:15:03.657Z,63.66
2022-08-07T21:18:04.019Z,63.27
2022-08-07T21:20:29.539Z,63.51
2022-08-07T21:23:08.771Z,63.64
2022-08-07T21:25:58.439Z,63.24
2022-08-07T21:28:50.224Z,63.42
2022-08-07T21:31:49.765Z,63.85
2022-08-07T21:34:46.172Z,64.08
2022-08-07T21:37:21.820Z,64.05
2022-08-07T21:40:18.035Z,64.69
2022-08-07T21:43:01.205Z,65.30
2022-08-07T21:46:08.386Z,65.28
2022-08-07T21:48:55.730Z,65.69
2022-08-07T21:51:50.990Z,65.69
2022-08-07T21:55:06.283Z,65.95
2022-08-07T21:57:53.604Z,65.90
2022-08-07T22:00:25.705Z,66.37
2022-08-07T22:03:30.665Z,66.90
2022-08-07T22:06:30.285Z,67.22
2022-08-07T22:09:08.426Z,66.75
2022-08-07T22:12:05.144Z,66.68
2022-08-07T22:14:44.032Z,66.03
2022-08-07T22:17:42.700Z,66.10
2022-08-07T22:20:40.104Z,65.89
2022-08-07T22:23:41.226Z,65.53
2022-08-07T22:26:30.967Z,66.09
2022-08-07T22:29:15.527Z,67.14
2022-08-07T22:32:06.219Z,66.98
2022-08-07T22:34:58.911Z,67.38
2022-08-07T22:38:05.379Z,67.68
2022-08-07T22:40:36.198Z,67.71
2022-08-07T22:43:16.994Z,67.67
2022-08-07T22:46:47.236Z,67.63
2022-08-07T22:49:57.116Z,67.74
2022-08-07T22:53:00.589Z,67.67
2022-08-07T22:55:45.789Z,67.53
2022-08-07T22:58:43.028Z,67.73
2022-08-07T23:01:49.724Z,67.59
2022-08-07T23:04:36.140Z,67.61
2022-08-07T23:07:41.713Z,67.52
2022-08-07T23:10:37.379Z,67.52
2022-08-07T23:14:15.386Z,67.19
2022-08-07T23:17:02.707Z,67.21
2022-08-07T23:20:05.297Z,66.89
2022-08-07T23:22:32.535Z,67.04
2022-08-07T23:25:48.702Z,67.23
2022-08-07T23:28:48.966Z,68.08
2022-08-07T23:34:19.443Z,68.53
2022-08-07T23:35:22.484Z,68.87
2022-08-07T23:38:36.799Z,69.48
2022-08-07T23:41:47.609Z,69.57
2022-08-07T23:44:39.449Z,69.55
2022-08-07T23:47:16.611Z,69.55
2022-08-07T23:50:35.409Z,68.83
2022-08-07T23:53:50.200Z,68.42
2022-08-07T23:56:41.695Z,68.47
